createdAt,value
2023-02-05T00:00:54.326Z,17.80
2023-02-05T00:01:54.252Z,18.50
2023-02-05T00:02:54.179Z,17.80
2023-02-05T00:03:54.158Z,17.50
2023-02-05T00:04:54.120Z,17.30
2023-02-05T00:05:54.104Z,17.50
2023-02-05T00:06:54.065Z,17.20
2023-02-05T00:07:54.042Z,16.20
2023-02-05T00:08:54.012Z,17.20
2023-02-05T00:09:53.993Z,18.60
2023-02-05T00:10:53.961Z,18.50
2023-02-05T00:11:53.927Z,17.70
2023-02-05T00:12:53.904Z,17.70
2023-02-05T00:13:53.878Z,19.00
2023-02-05T00:14:53.847Z,19.30
2023-02-05T00:15:53.818Z,18.70
2023-02-05T00:16:53.861Z,18.50
2023-02-05T00:17:53.767Z,20.20
2023-02-05T00:18:53.741Z,23.40
2023-02-05T00:19:53.707Z,25.30
2023-02-05T00:20:53.686Z,24.10
2023-02-05T00:21:53.657Z,23.10
2023-02-05T00:22:53.631Z,21.80
2023-02-05T00:23:53.603Z,20.90
2023-02-05T00:24:53.579Z,19.50
2023-02-05T00:25:53.544Z,20.80
2023-02-05T00:26:53.523Z,22.00
2023-02-05T00:27:53.516Z,22.40
2023-02-05T00:28:53.469Z,20.30
2023-02-05T00:29:53.439Z,18.80
2023-02-05T00:30:53.528Z,25.40
2023-02-05T00:31:53.423Z,36.30
2023-02-05T00:32:53.377Z,29.10
2023-02-05T00:33:53.326Z,23.50
2023-02-05T00:34:53.312Z,19.90
2023-02-05T00:35:53.272Z,17.20
2023-02-05T00:36:53.253Z,17.00
2023-02-05T00:37:53.224Z,15.50
2023-02-05T00:38:53.192Z,16.00
2023-02-05T00:39:53.167Z,17.30
2023-02-05T00:40:53.142Z,17.30
2023-02-05T00:41:53.118Z,15.80
2023-02-05T00:42:53.083Z,16.60
2023-02-05T00:43:53.054Z,17.10
2023-02-05T00:44:53.042Z,15.80
2023-02-05T00:45:53.024Z,15.70
2023-02-05T00:46:52.979Z,16.50
2023-02-05T00:47:52.948Z,16.00
2023-02-05T00:48:53.029Z,15.90
2023-02-05T00:49:52.891Z,15.60
2023-02-05T00:50:52.867Z,14.80
2023-02-05T00:51:52.859Z,14.70
2023-02-05T00:52:52.826Z,14.60
2023-02-05T00:53:52.781Z,15.40
2023-02-05T00:54:52.756Z,14.30
2023-02-05T00:55:52.731Z,15.00
2023-02-05T00:56:52.706Z,15.00
2023-02-05T00:57:52.674Z,14.70
2023-02-05T00:58:52.653Z,14.40
2023-02-05T00:59:52.631Z,15.00
2023-02-05T01:00:52.594Z,14.70
2023-02-05T01:01:52.567Z,14.20
2023-02-05T01:02:52.572Z,14.90
2023-02-05T01:03:52.512Z,14.20
2023-02-05T01:04:52.507Z,14.70
2023-02-05T01:05:52.459Z,14.40
2023-02-05T01:06:52.439Z,15.20
2023-02-05T01:07:52.410Z,14.90
2023-02-05T01:08:52.383Z,15.30
2023-02-05T01:09:52.352Z,15.30
2023-02-05T01:10:52.335Z,14.40
2023-02-05T01:11:52.300Z,14.10
2023-02-05T01:12:52.271Z,14.50
2023-02-05T01:13:52.243Z,14.00
2023-02-05T01:14:52.228Z,14.10
2023-02-05T01:15:52.213Z,14.70
2023-02-05T01:16:52.167Z,13.20
2023-02-05T01:17:52.136Z,14.30
2023-02-05T01:18:52.114Z,14.20
2023-02-05T01:19:52.087Z,15.10
2023-02-05T01:20:52.075Z,14.90
2023-02-05T01:21:52.029Z,15.20
2023-02-05T01:22:52.005Z,14.30
2023-02-05T01:23:51.969Z,15.10
2023-02-05T01:24:51.950Z,14.50
2023-02-05T01:25:51.921Z,14.10
2023-02-05T01:26:51.897Z,14.50
2023-02-05T01:27:51.900Z,15.50
2023-02-05T01:28:51.842Z,14.30
2023-02-05T01:29:51.818Z,14.70
2023-02-05T01:30:51.870Z,14.90
2023-02-05T01:31:51.820Z,15.00
2023-02-05T01:32:51.738Z,15.10
2023-02-05T01:33:51.704Z,14.00
2023-02-05T01:34:51.686Z,15.30
2023-02-05T01:35:51.652Z,14.60
2023-02-05T01:36:51.656Z,14.80
2023-02-05T01:37:51.595Z,14.70
2023-02-05T01:38:51.574Z,15.10
2023-02-05T01:39:51.545Z,15.90
2023-02-05T01:40:51.531Z,14.90
2023-02-05T01:41:51.488Z,14.80
2023-02-05T01:42:51.465Z,14.60
2023-02-05T01:43:51.428Z,15.60
2023-02-05T01:44:51.404Z,14.50
2023-02-05T01:45:51.383Z,14.90
2023-02-05T01:46:51.352Z,15.90
2023-02-05T01:47:51.317Z,14.90
2023-02-05T01:48:51.292Z,14.30
2023-02-05T01:49:51.263Z,14.40
2023-02-05T01:50:51.240Z,15.40
2023-02-05T01:51:51.208Z,14.50
2023-02-05T01:52:51.201Z,14.30
2023-02-05T01:53:51.156Z,13.80
2023-02-05T01:54:51.138Z,15.00
2023-02-05T01:55:51.098Z,13.70
2023-02-05T01:56:51.078Z,13.60
2023-02-05T01:57:51.046Z,14.40
2023-02-05T01:58:51.025Z,13.40
2023-02-05T01:59:50.997Z,13.20
2023-02-05T02:00:50.967Z,13.20
2023-02-05T02:01:50.965Z,13.00
2023-02-05T02:02:50.913Z,12.50
2023-02-05T02:03:50.880Z,12.80
2023-02-05T02:04:50.906Z,12.80
2023-02-05T02:05:50.825Z,13.20
2023-02-05T02:06:50.801Z,13.00
2023-02-05T02:07:50.772Z,13.30
2023-02-05T02:08:50.773Z,13.80
2023-02-05T02:09:50.717Z,13.10
2023-02-05T02:10:50.695Z,13.20
2023-02-05T02:11:50.663Z,13.80
2023-02-05T02:12:50.640Z,13.60
2023-02-05T02:13:50.616Z,13.70
2023-02-05T02:14:50.588Z,12.90
2023-02-05T02:15:50.639Z,13.50
2023-02-05T02:16:50.529Z,13.70
2023-02-05T02:17:50.503Z,12.80
2023-02-05T02:18:50.481Z,13.30
2023-02-05T02:19:50.445Z,13.00
2023-02-05T02:20:50.446Z,12.20
2023-02-05T02:21:50.396Z,12.60
2023-02-05T02:22:50.364Z,13.10
2023-02-05T02:23:50.336Z,12.70
2023-02-05T02:24:50.361Z,12.50
2023-02-05T02:25:50.282Z,12.50
2023-02-05T02:26:50.269Z,13.40
2023-02-05T02:27:50.242Z,13.60
2023-02-05T02:28:50.216Z,13.40
2023-02-05T02:29:50.170Z,12.70
2023-02-05T02:30:50.197Z,13.30
2023-02-05T02:31:50.118Z,12.60
2023-02-05T02:32:50.097Z,13.30
2023-02-05T02:33:50.078Z,13.50
2023-02-05T02:34:50.045Z,13.40
2023-02-05T02:35:50.010Z,12.90
2023-02-05T02:36:49.992Z,12.30
2023-02-05T02:37:49.968Z,13.50
2023-02-05T02:38:49.940Z,12.80
2023-02-05T02:39:49.904Z,14.10
2023-02-05T02:40:49.897Z,14.10
2023-02-05T02:41:49.845Z,13.00
2023-02-05T02:42:49.822Z,13.50
2023-02-05T02:43:49.797Z,13.60
2023-02-05T02:44:49.771Z,12.80
2023-02-05T02:45:49.753Z,13.20
2023-02-05T02:46:49.777Z,12.90
2023-02-05T02:47:49.695Z,14.00
2023-02-05T02:48:49.673Z,13.00
2023-02-05T02:49:49.643Z,13.40
2023-02-05T02:50:49.617Z,13.20
2023-02-05T02:51:49.579Z,13.20
2023-02-05T02:52:49.563Z,12.60
2023-02-05T02:53:49.531Z,13.60
2023-02-05T02:54:49.506Z,13.90
2023-02-05T02:55:49.475Z,13.70
2023-02-05T02:56:49.478Z,13.70
2023-02-05T02:57:49.422Z,13.00
2023-02-05T02:58:49.402Z,13.00
2023-02-05T02:59:49.376Z,13.40
2023-02-05T03:00:49.422Z,13.80
2023-02-05T03:01:53.891Z,13.20
2023-02-05T03:02:49.288Z,13.60
2023-02-05T03:03:49.278Z,13.30
2023-02-05T03:04:49.236Z,13.00
2023-02-05T03:05:49.206Z,13.40
2023-02-05T03:06:49.180Z,13.90
2023-02-05T03:07:49.148Z,13.40
2023-02-05T03:08:49.136Z,13.20
2023-02-05T03:09:49.099Z,12.70
2023-02-05T03:10:49.076Z,13.30
2023-02-05T03:11:49.051Z,12.40
2023-02-05T03:12:49.050Z,14.30
2023-02-05T03:13:48.992Z,13.30
2023-02-05T03:14:48.966Z,12.80
2023-02-05T03:15:48.939Z,12.60
2023-02-05T03:16:48.915Z,12.50
2023-02-05T03:17:48.879Z,13.60
2023-02-05T03:18:48.854Z,13.30
2023-02-05T03:19:48.824Z,13.90
2023-02-05T03:20:48.800Z,13.30
2023-02-05T03:21:48.777Z,13.30
2023-02-05T03:22:48.755Z,12.90
2023-02-05T03:23:48.717Z,13.50
2023-02-05T03:24:48.694Z,13.60
2023-02-05T03:25:48.663Z,13.70
2023-02-05T03:26:48.646Z,13.50
2023-02-05T03:27:48.664Z,13.80
2023-02-05T03:28:48.631Z,13.30
2023-02-05T03:29:48.555Z,13.80
2023-02-05T03:30:48.604Z,14.30
2023-02-05T03:31:48.570Z,13.70
2023-02-05T03:32:48.473Z,14.60
2023-02-05T03:33:48.448Z,14.00
2023-02-05T03:34:48.417Z,13.90
2023-02-05T03:35:48.400Z,13.60
2023-02-05T03:36:48.370Z,13.80
2023-02-05T03:37:48.339Z,13.90
2023-02-05T03:38:48.315Z,13.90
2023-02-05T03:39:48.291Z,13.70
2023-02-05T03:40:48.266Z,14.20
2023-02-05T03:41:48.232Z,13.50
2023-02-05T03:42:48.205Z,13.90
2023-02-05T03:43:48.181Z,14.00
2023-02-05T03:44:48.181Z,13.60
2023-02-05T03:45:48.205Z,14.10
2023-02-05T03:46:48.093Z,14.20
2023-02-05T03:47:48.070Z,13.00
2023-02-05T03:48:48.043Z,13.70
2023-02-05T03:49:48.012Z,13.80
2023-02-05T03:50:48.000Z,13.60
2023-02-05T03:51:47.961Z,13.70
2023-02-05T03:52:47.929Z,13.60
2023-02-05T03:53:47.902Z,13.30
2023-02-05T03:54:47.877Z,13.90
2023-02-05T03:55:47.844Z,13.80
2023-02-05T03:56:47.832Z,13.60
2023-02-05T03:57:47.793Z,13.50
2023-02-05T03:58:47.768Z,13.70
2023-02-05T03:59:47.737Z,13.90
2023-02-05T04:00:47.790Z,12.80
2023-02-05T04:01:47.683Z,13.60
2023-02-05T04:02:47.652Z,13.60
2023-02-05T04:03:47.631Z,13.60
2023-02-05T04:04:47.612Z,14.30
2023-02-05T04:05:47.575Z,14.10
2023-02-05T04:06:47.545Z,13.50
2023-02-05T04:07:47.529Z,13.40
2023-02-05T04:08:47.499Z,13.90
2023-02-05T04:09:47.469Z,13.60
2023-02-05T04:10:47.438Z,13.40
2023-02-05T04:11:47.427Z,13.70
2023-02-05T04:12:47.381Z,13.20
2023-02-05T04:13:47.357Z,13.10
2023-02-05T04:14:47.334Z,13.60
2023-02-05T04:15:47.301Z,13.50
2023-02-05T04:16:47.299Z,13.90
2023-02-05T04:17:47.247Z,12.90
2023-02-05T04:18:47.221Z,13.90
2023-02-05T04:19:47.197Z,13.50
2023-02-05T04:20:47.164Z,14.50
2023-02-05T04:21:47.149Z,14.30
2023-02-05T04:22:47.106Z,14.10
2023-02-05T04:23:47.132Z,12.30
2023-02-05T04:24:47.054Z,13.60
2023-02-05T04:25:47.028Z,13.20
2023-02-05T04:26:47.006Z,14.00
2023-02-05T04:27:47.004Z,14.00
2023-02-05T04:28:46.946Z,13.80
2023-02-05T04:29:46.929Z,13.20
2023-02-05T04:30:46.923Z,13.90
2023-02-05T04:31:46.885Z,13.70
2023-02-05T04:32:46.870Z,13.40
2023-02-05T04:33:46.813Z,13.40
2023-02-05T04:34:46.789Z,13.30
2023-02-05T04:35:46.764Z,14.30
2023-02-05T04:36:46.734Z,13.20
2023-02-05T04:37:46.709Z,13.50
2023-02-05T04:38:46.684Z,13.60
2023-02-05T04:39:46.657Z,13.40
2023-02-05T04:40:46.630Z,14.30
2023-02-05T04:41:46.601Z,14.30
2023-02-05T04:42:46.572Z,14.40
2023-02-05T04:43:46.554Z,14.20
2023-02-05T04:44:46.528Z,13.00
2023-02-05T04:45:46.512Z,14.80
2023-02-05T04:46:46.467Z,15.00
2023-02-05T04:47:46.440Z,13.70
2023-02-05T04:48:46.429Z,13.90
2023-02-05T04:49:46.394Z,15.30
2023-02-05T04:50:46.358Z,13.60
2023-02-05T04:51:46.334Z,14.40
2023-02-05T04:52:46.305Z,14.90
2023-02-05T04:53:46.285Z,15.20
2023-02-05T04:54:46.253Z,14.40
2023-02-05T04:55:46.250Z,14.30
2023-02-05T04:56:46.201Z,15.00
2023-02-05T04:57:46.176Z,15.30
2023-02-05T04:58:46.146Z,15.00
2023-02-05T04:59:46.116Z,13.90
2023-02-05T05:00:46.101Z,16.00
2023-02-05T05:01:46.071Z,14.20
2023-02-05T05:02:46.200Z,15.50
2023-02-05T05:03:46.011Z,15.20
2023-02-05T05:04:46.002Z,15.20
2023-02-05T05:05:45.955Z,14.70
2023-02-05T05:06:45.928Z,15.40
2023-02-05T05:07:45.897Z,15.50
2023-02-05T05:08:45.875Z,15.10
2023-02-05T05:09:45.871Z,15.10
2023-02-05T05:10:45.819Z,14.80
2023-02-05T05:11:45.794Z,15.10
2023-02-05T05:12:45.763Z,15.20
2023-02-05T05:13:45.740Z,15.30
2023-02-05T05:14:45.709Z,15.30
2023-02-05T05:15:45.855Z,15.80
2023-02-05T05:16:45.659Z,16.00
2023-02-05T05:17:45.641Z,15.10
2023-02-05T05:18:45.602Z,16.00
2023-02-05T05:19:45.574Z,16.90
2023-02-05T05:20:45.574Z,16.40
2023-02-05T05:21:45.532Z,15.60
2023-02-05T05:22:45.489Z,16.80
2023-02-05T05:23:45.467Z,16.10
2023-02-05T05:24:45.435Z,15.60
2023-02-05T05:25:45.420Z,16.70
2023-02-05T05:26:45.384Z,17.00
2023-02-05T05:27:45.387Z,16.00
2023-02-05T05:28:45.330Z,16.00
2023-02-05T05:29:45.317Z,16.40
2023-02-05T05:30:45.290Z,15.80
2023-02-05T05:31:45.316Z,16.80
2023-02-05T05:32:45.216Z,16.10
2023-02-05T05:33:45.195Z,16.40
2023-02-05T05:34:45.183Z,16.40
2023-02-05T05:35:45.147Z,16.60
2023-02-05T05:36:45.143Z,16.70
2023-02-05T05:37:45.092Z,16.90
2023-02-05T05:38:45.068Z,17.20
2023-02-05T05:39:45.032Z,16.20
2023-02-05T05:40:45.006Z,16.40
2023-02-05T05:41:44.990Z,17.70
2023-02-05T05:42:44.969Z,17.40
2023-02-05T05:43:44.928Z,17.50
2023-02-05T05:44:44.898Z,16.50
2023-02-05T05:45:44.905Z,17.00
2023-02-05T05:46:44.848Z,16.60
2023-02-05T05:47:44.825Z,17.70
2023-02-05T05:48:44.788Z,17.50
2023-02-05T05:49:44.765Z,17.80
2023-02-05T05:50:44.734Z,17.10
2023-02-05T05:51:44.712Z,18.40
2023-02-05T05:52:44.706Z,17.10
2023-02-05T05:53:44.654Z,17.20
2023-02-05T05:54:44.616Z,17.40
2023-02-05T05:55:44.603Z,17.40
2023-02-05T05:56:44.566Z,16.30
2023-02-05T05:57:44.547Z,17.80
2023-02-05T05:58:44.512Z,17.10
2023-02-05T05:59:44.487Z,17.20
2023-02-05T06:00:44.460Z,17.80
2023-02-05T06:01:44.437Z,16.50
2023-02-05T06:02:44.458Z,16.80
2023-02-05T06:03:44.410Z,16.90
2023-02-05T06:04:44.396Z,18.10
2023-02-05T06:05:44.334Z,17.50
2023-02-05T06:06:44.300Z,18.00
2023-02-05T06:07:44.273Z,18.30
2023-02-05T06:08:44.286Z,17.70
2023-02-05T06:09:44.220Z,17.40
2023-02-05T06:10:44.193Z,17.30
2023-02-05T06:11:44.163Z,17.90
2023-02-05T06:12:44.135Z,17.50
2023-02-05T06:13:44.102Z,17.10
2023-02-05T06:14:44.077Z,17.90
2023-02-05T06:15:44.077Z,18.40
2023-02-05T06:16:44.030Z,18.00
2023-02-05T06:17:43.996Z,18.70
2023-02-05T06:18:43.966Z,17.70
2023-02-05T06:19:43.955Z,18.50
2023-02-05T06:20:43.912Z,17.40
2023-02-05T06:21:43.890Z,18.60
2023-02-05T06:22:43.858Z,17.70
2023-02-05T06:23:43.837Z,18.00
2023-02-05T06:24:43.827Z,19.10
2023-02-05T06:25:43.781Z,19.60
2023-02-05T06:26:43.750Z,18.60
2023-02-05T06:27:43.760Z,18.10
2023-02-05T06:28:43.709Z,19.80
2023-02-05T06:29:43.676Z,19.30
2023-02-05T06:30:43.714Z,19.00
2023-02-05T06:31:43.737Z,19.50
2023-02-05T06:32:43.610Z,18.90
2023-02-05T06:33:43.591Z,20.20
2023-02-05T06:34:43.535Z,19.60
2023-02-05T06:35:43.521Z,18.90
2023-02-05T06:36:43.481Z,18.40
2023-02-05T06:37:47.722Z,19.10
2023-02-05T06:38:43.438Z,19.50
2023-02-05T06:39:43.407Z,18.60
2023-02-05T06:40:43.465Z,19.70
2023-02-05T06:41:43.352Z,19.80
2023-02-05T06:42:43.325Z,21.60
2023-02-05T06:43:43.299Z,20.50
2023-02-05T06:44:43.272Z,20.50
2023-02-05T06:45:43.240Z,21.40
2023-02-05T06:46:43.259Z,20.50
2023-02-05T06:47:43.185Z,21.40
2023-02-05T06:48:43.155Z,22.30
2023-02-05T06:49:43.137Z,21.60
2023-02-05T06:50:43.101Z,21.40
2023-02-05T06:51:43.081Z,22.00
2023-02-05T06:52:43.058Z,21.20
2023-02-05T06:53:43.043Z,21.20
2023-02-05T06:54:42.996Z,21.00
2023-02-05T06:55:42.974Z,22.90
2023-02-05T06:56:42.980Z,23.00
2023-02-05T06:57:42.917Z,22.20
2023-02-05T06:58:42.894Z,20.60
2023-02-05T06:59:42.862Z,22.70
2023-02-05T07:00:42.838Z,20.60
2023-02-05T07:01:42.849Z,22.90
2023-02-05T07:02:42.865Z,23.00
2023-02-05T07:03:42.759Z,21.50
2023-02-05T07:04:42.730Z,23.60
2023-02-05T07:05:42.704Z,23.40
2023-02-05T07:06:42.687Z,22.60
2023-02-05T07:07:42.650Z,23.20
2023-02-05T07:08:42.620Z,23.60
2023-02-05T07:09:42.599Z,23.80
2023-02-05T07:10:42.578Z,24.20
2023-02-05T07:11:42.541Z,22.90
2023-02-05T07:12:42.541Z,23.00
2023-02-05T07:13:42.496Z,22.70
2023-02-05T07:14:42.463Z,21.60
2023-02-05T07:15:42.572Z,22.90
2023-02-05T07:16:42.404Z,22.80
2023-02-05T07:17:42.382Z,22.80
2023-02-05T07:18:42.353Z,24.20
2023-02-05T07:19:42.334Z,25.20
2023-02-05T07:20:42.300Z,26.70
2023-02-05T07:21:42.273Z,27.10
2023-02-05T07:22:42.248Z,25.80
2023-02-05T07:23:42.230Z,27.90
2023-02-05T07:24:42.193Z,29.80
2023-02-05T07:25:42.173Z,26.90
2023-02-05T07:26:42.140Z,29.50
2023-02-05T07:27:42.182Z,29.50
2023-02-05T07:28:42.129Z,29.50
2023-02-05T07:29:42.071Z,28.10
2023-02-05T07:30:42.087Z,34.60
2023-02-05T07:31:42.180Z,44.20
2023-02-05T07:32:41.982Z,35.60
2023-02-05T07:33:41.957Z,36.80
2023-02-05T07:34:41.935Z,38.20
2023-02-05T07:35:41.898Z,33.70
2023-02-05T07:36:41.886Z,30.70
2023-02-05T07:37:41.848Z,29.50
2023-02-05T07:38:41.812Z,32.00
2023-02-05T07:39:41.802Z,36.90
2023-02-05T07:40:41.782Z,57.50
2023-02-05T07:41:41.739Z,33.50
2023-02-05T07:42:41.704Z,50.60
2023-02-05T07:43:41.681Z,58.90
2023-02-05T07:44:41.689Z,55.40
2023-02-05T07:45:41.629Z,44.40
2023-02-05T07:46:41.628Z,48.70
2023-02-05T07:47:41.572Z,50.20
2023-02-05T07:48:41.542Z,50.30
2023-02-05T07:49:41.516Z,47.40
2023-02-05T07:50:41.490Z,39.00
2023-02-05T07:51:41.463Z,39.10
2023-02-05T07:52:41.439Z,38.20
2023-02-05T07:53:41.412Z,46.10
2023-02-05T07:54:41.391Z,43.90
2023-02-05T07:55:41.356Z,38.50
2023-02-05T07:56:41.323Z,38.10
2023-02-05T07:57:41.305Z,34.80
2023-02-05T07:58:41.278Z,48.00
2023-02-05T07:59:41.252Z,39.30
2023-02-05T08:00:41.300Z,38.00
2023-02-05T08:01:41.195Z,34.90
2023-02-05T08:02:41.157Z,35.10
2023-02-05T08:03:41.135Z,33.40
2023-02-05T08:04:41.108Z,34.80
2023-02-05T08:05:41.090Z,33.80
2023-02-05T08:06:41.057Z,35.30
2023-02-05T08:07:41.045Z,35.50
2023-02-05T08:08:41.000Z,36.90
2023-02-05T08:09:40.978Z,36.30
2023-02-05T08:10:40.950Z,34.70
2023-02-05T08:11:40.946Z,35.50
2023-02-05T08:12:40.895Z,36.60
2023-02-05T08:13:40.893Z,37.00
2023-02-05T08:14:40.851Z,35.00
2023-02-05T08:15:40.816Z,35.70
2023-02-05T08:16:40.823Z,36.60
2023-02-05T08:17:40.763Z,35.40
2023-02-05T08:18:40.743Z,35.00
2023-02-05T08:19:40.707Z,33.50
2023-02-05T08:20:40.688Z,33.10
2023-02-05T08:21:40.657Z,32.90
2023-02-05T08:22:40.632Z,33.20
2023-02-05T08:23:40.608Z,31.70
2023-02-05T08:24:40.577Z,33.00
2023-02-05T08:25:40.551Z,31.00
2023-02-05T08:26:40.532Z,31.20
2023-02-05T08:27:40.495Z,30.40
2023-02-05T08:28:40.475Z,30.10
2023-02-05T08:29:40.444Z,29.40
2023-02-05T08:30:40.445Z,28.30
2023-02-05T08:31:40.439Z,28.30
2023-02-05T08:32:40.388Z,28.90
2023-02-05T08:33:40.338Z,27.70
2023-02-05T08:34:40.309Z,28.00
2023-02-05T08:35:40.277Z,28.10
2023-02-05T08:36:40.252Z,26.70
2023-02-05T08:37:40.229Z,25.80
2023-02-05T08:38:40.204Z,26.60
2023-02-05T08:39:40.169Z,26.40
2023-02-05T08:40:40.154Z,23.80
2023-02-05T08:41:40.136Z,23.00
2023-02-05T08:42:40.095Z,23.40
2023-02-05T08:43:40.071Z,22.80
2023-02-05T08:44:40.049Z,22.90
2023-02-05T08:45:40.089Z,23.80
2023-02-05T08:46:49.298Z,23.50
2023-02-05T08:47:39.965Z,23.00
2023-02-05T08:48:39.953Z,21.90
2023-02-05T08:49:39.912Z,22.00
2023-02-05T08:50:39.880Z,20.80
2023-02-05T08:51:39.856Z,20.90
2023-02-05T08:52:39.833Z,17.70
2023-02-05T08:53:39.801Z,18.60
2023-02-05T08:54:39.773Z,14.80
2023-02-05T08:55:39.748Z,13.90
2023-02-05T08:56:39.735Z,10.90
2023-02-05T08:57:39.691Z,11.10
2023-02-05T08:58:39.668Z,8.80
2023-02-05T08:59:39.634Z,8.10
2023-02-05T09:00:39.615Z,7.80
2023-02-05T09:01:39.582Z,7.40
2023-02-05T09:02:39.555Z,6.80
2023-02-05T09:03:39.531Z,6.30
2023-02-05T09:04:39.628Z,6.60
2023-02-05T09:05:39.478Z,6.20
2023-02-05T09:06:39.451Z,6.10
2023-02-05T09:07:39.472Z,5.30
2023-02-05T09:08:39.395Z,5.80
2023-02-05T09:09:39.370Z,5.40
2023-02-05T09:10:39.338Z,5.20
2023-02-05T09:11:39.311Z,4.90
2023-02-05T09:12:39.295Z,5.10
2023-02-05T09:13:39.260Z,4.60
2023-02-05T09:14:39.239Z,4.40
2023-02-05T09:15:39.202Z,4.60
2023-02-05T09:16:39.262Z,4.50
2023-02-05T09:17:39.150Z,4.20
2023-02-05T09:18:39.134Z,4.60
2023-02-05T09:19:39.101Z,4.00
2023-02-05T09:20:39.098Z,3.40
2023-02-05T09:21:39.041Z,3.40
2023-02-05T09:22:39.020Z,4.00
2023-02-05T09:23:38.992Z,3.60
2023-02-05T09:24:38.965Z,3.90
2023-02-05T09:25:38.928Z,3.10
2023-02-05T09:26:38.917Z,3.30
2023-02-05T09:27:38.883Z,3.70
2023-02-05T09:28:38.856Z,3.90
2023-02-05T09:29:38.823Z,3.40
2023-02-05T09:30:38.934Z,3.20
2023-02-05T09:31:38.881Z,2.50
2023-02-05T09:32:38.743Z,2.60
2023-02-05T09:33:38.723Z,2.70
2023-02-05T09:34:38.696Z,2.90
2023-02-05T09:35:38.678Z,2.50
2023-02-05T09:36:38.665Z,2.60
2023-02-05T09:37:38.614Z,2.00
2023-02-05T09:38:38.590Z,2.40
2023-02-05T09:40:17.643Z,2.60
2023-02-05T09:40:38.534Z,2.30
2023-02-05T09:41:38.499Z,2.80
2023-02-05T09:42:38.572Z,2.50
2023-02-05T09:43:38.446Z,2.10
2023-02-05T09:44:38.427Z,2.10
2023-02-05T09:45:39.128Z,2.90
2023-02-05T09:46:38.375Z,2.00
2023-02-05T09:47:38.332Z,1.60
2023-02-05T09:48:38.319Z,1.70
2023-02-05T09:49:38.283Z,1.70
2023-02-05T09:50:38.261Z,2.10
2023-02-05T09:51:38.230Z,1.90
2023-02-05T09:52:38.231Z,1.90
2023-02-05T09:53:38.178Z,1.60
2023-02-05T09:54:38.152Z,2.30
2023-02-05T09:55:38.119Z,1.70
2023-02-05T09:56:39.944Z,1.70
2023-02-05T09:57:38.065Z,1.70
2023-02-05T09:58:38.051Z,1.80
2023-02-05T09:59:38.002Z,1.80
2023-02-05T10:00:37.984Z,1.70
2023-02-05T10:01:38.086Z,1.60
2023-02-05T10:02:37.933Z,1.60
2023-02-05T10:03:37.897Z,1.80
2023-02-05T10:04:37.915Z,1.60
2023-02-05T10:05:37.840Z,1.50
2023-02-05T10:06:37.824Z,1.60
2023-02-05T10:07:37.788Z,1.60
2023-02-05T10:08:37.803Z,2.00
2023-02-05T10:09:37.741Z,1.50
2023-02-05T10:10:37.715Z,1.60
2023-02-05T10:11:37.691Z,1.60
2023-02-05T10:12:37.654Z,1.40
2023-02-05T10:13:37.625Z,1.20
2023-02-05T10:14:37.599Z,1.10
2023-02-05T10:15:37.790Z,1.90
2023-02-05T10:16:37.549Z,1.10
2023-02-05T10:17:37.519Z,1.30
2023-02-05T10:18:37.493Z,1.30
2023-02-05T10:19:37.461Z,1.20
2023-02-05T10:20:37.435Z,2.20
2023-02-05T10:21:37.407Z,1.40
2023-02-05T10:22:37.388Z,1.30
2023-02-05T10:23:37.353Z,1.30
2023-02-05T10:24:37.348Z,1.80
2023-02-05T10:25:37.515Z,1.60
2023-02-05T10:26:37.275Z,1.60
2023-02-05T10:27:37.245Z,1.90
2023-02-05T10:28:37.222Z,1.50
2023-02-05T10:29:37.189Z,1.50
2023-02-05T10:30:37.223Z,1.40
2023-02-05T10:31:37.333Z,1.60
2023-02-05T10:32:37.118Z,1.80
2023-02-05T10:33:37.094Z,1.70
2023-02-05T10:34:37.064Z,1.60
2023-02-05T10:35:37.311Z,1.90
2023-02-05T10:36:37.009Z,1.80
2023-02-05T10:37:36.977Z,2.00
2023-02-05T10:38:36.953Z,1.90
2023-02-05T10:39:36.920Z,1.80
2023-02-05T10:40:37.033Z,1.90
2023-02-05T10:41:36.873Z,1.80
2023-02-05T10:42:36.845Z,1.90
2023-02-05T10:43:36.818Z,1.80
2023-02-05T10:44:36.790Z,2.30
2023-02-05T10:45:37.204Z,1.80
2023-02-05T10:46:36.811Z,1.90
2023-02-05T10:47:36.702Z,1.60
2023-02-05T10:48:36.679Z,2.00
2023-02-05T10:49:36.647Z,2.00
2023-02-05T10:50:36.873Z,1.80
2023-02-05T10:51:36.595Z,2.00
2023-02-05T10:52:36.577Z,1.80
2023-02-05T10:53:36.537Z,1.90
2023-02-05T10:54:36.516Z,1.90
2023-02-05T10:55:36.737Z,1.90
2023-02-05T10:56:36.487Z,2.60
2023-02-05T10:57:36.432Z,2.00
2023-02-05T10:58:36.408Z,1.90
2023-02-05T10:59:36.382Z,1.90
2023-02-05T11:00:36.738Z,2.20
2023-02-05T11:01:36.375Z,2.60
2023-02-05T11:02:36.337Z,2.20
2023-02-05T11:03:36.271Z,2.00
2023-02-05T11:04:37.698Z,2.20
2023-02-05T11:05:36.220Z,2.60
2023-02-05T11:06:36.195Z,2.30
2023-02-05T11:07:36.163Z,2.50
2023-02-05T11:08:36.139Z,2.40
2023-02-05T11:09:36.116Z,2.60
2023-02-05T11:10:36.602Z,3.20
2023-02-05T11:11:38.312Z,3.20
2023-02-05T11:12:36.052Z,2.60
2023-02-05T11:13:36.000Z,3.20
2023-02-05T11:14:35.976Z,3.70
2023-02-05T11:15:35.947Z,3.10
2023-02-05T11:16:35.921Z,4.00
2023-02-05T11:17:35.892Z,3.30
2023-02-05T11:18:35.876Z,4.00
2023-02-05T11:19:35.834Z,3.60
2023-02-05T11:20:36.199Z,3.70
2023-02-05T11:21:35.777Z,3.70
2023-02-05T11:22:35.786Z,4.20
2023-02-05T11:23:35.725Z,4.30
2023-02-05T11:24:35.704Z,4.40
2023-02-05T11:25:35.669Z,4.10
2023-02-05T11:26:35.651Z,3.80
2023-02-05T11:27:35.624Z,4.50
2023-02-05T11:28:35.630Z,3.70
2023-02-05T11:29:35.567Z,4.50
2023-02-05T11:30:56.356Z,4.60
2023-02-05T11:31:35.581Z,4.20
2023-02-05T11:32:35.484Z,4.20
2023-02-05T11:33:35.453Z,4.80
2023-02-05T11:34:35.429Z,4.50
2023-02-05T11:35:35.397Z,4.20
2023-02-05T11:36:35.377Z,4.50
2023-02-05T11:37:35.345Z,4.40
2023-02-05T11:38:35.323Z,4.90
2023-02-05T11:39:35.295Z,4.50
2023-02-05T11:40:35.659Z,4.20
2023-02-05T11:41:35.240Z,3.90
2023-02-05T11:42:35.216Z,4.60
2023-02-05T11:43:35.182Z,4.50
2023-02-05T11:44:35.195Z,4.70
2023-02-05T11:45:35.129Z,4.50
2023-02-05T11:46:35.126Z,3.90
2023-02-05T11:47:35.075Z,4.40
2023-02-05T11:48:35.058Z,3.60
2023-02-05T11:49:35.040Z,4.40
2023-02-05T11:50:35.275Z,3.90
2023-02-05T11:51:34.991Z,3.60
2023-02-05T11:52:34.943Z,3.60
2023-02-05T11:53:34.923Z,3.70
2023-02-05T11:54:34.889Z,4.10
2023-02-05T11:55:34.865Z,4.00
2023-02-05T11:56:34.836Z,3.40
2023-02-05T11:57:34.805Z,3.60
2023-02-05T11:58:37.267Z,3.60
2023-02-05T11:59:34.751Z,3.50
2023-02-05T12:00:35.106Z,3.80
2023-02-05T12:01:34.832Z,3.60
2023-02-05T12:02:34.672Z,4.00
2023-02-05T12:03:34.645Z,4.00
2023-02-05T12:04:34.637Z,4.20
2023-02-05T12:05:34.595Z,3.60
2023-02-05T12:06:34.569Z,4.10
2023-02-05T12:07:34.541Z,4.20
2023-02-05T12:08:34.521Z,3.80
2023-02-05T12:09:34.487Z,3.90
2023-02-05T12:10:34.751Z,4.10
2023-02-05T12:11:34.434Z,3.80
2023-02-05T12:12:34.409Z,4.20
2023-02-05T12:13:34.381Z,3.90
2023-02-05T12:14:34.354Z,4.00
2023-02-05T12:15:34.322Z,4.30
2023-02-05T12:16:34.351Z,4.90
2023-02-05T12:17:34.278Z,5.00
2023-02-05T12:18:34.261Z,4.70
2023-02-05T12:19:34.216Z,5.40
2023-02-05T12:20:34.510Z,5.20
2023-02-05T12:21:34.166Z,4.90
2023-02-05T12:22:34.137Z,5.40
2023-02-05T12:23:34.116Z,4.80
2023-02-05T12:24:34.081Z,5.50
2023-02-05T12:25:34.455Z,5.40
2023-02-05T12:26:34.040Z,5.40
2023-02-05T12:27:34.000Z,5.60
2023-02-05T12:28:33.975Z,5.10
2023-02-05T12:29:33.947Z,5.70
2023-02-05T12:30:33.945Z,5.90
2023-02-05T12:31:33.919Z,5.10
2023-02-05T12:32:33.887Z,5.30
2023-02-05T12:33:33.843Z,5.10
2023-02-05T12:34:33.813Z,4.90
2023-02-05T12:35:34.254Z,5.50
2023-02-05T12:36:33.756Z,5.30
2023-02-05T12:37:33.724Z,5.40
2023-02-05T12:38:33.700Z,5.40
2023-02-05T12:39:33.673Z,5.80
2023-02-05T12:40:33.641Z,6.30
2023-02-05T12:41:33.623Z,6.30
2023-02-05T12:42:33.591Z,6.30
2023-02-05T12:43:33.569Z,6.30
2023-02-05T12:44:33.535Z,6.40
2023-02-05T12:45:34.236Z,7.20
2023-02-05T12:46:33.488Z,7.60
2023-02-05T12:47:33.452Z,7.10
2023-02-05T12:48:33.447Z,6.60
2023-02-05T12:49:33.398Z,6.90
2023-02-05T12:50:33.384Z,7.00
2023-02-05T12:51:33.349Z,7.90
2023-02-05T12:52:33.313Z,7.70
2023-02-05T12:53:33.296Z,7.40
2023-02-05T12:54:33.261Z,7.20
2023-02-05T12:55:33.489Z,7.90
2023-02-05T12:56:33.212Z,7.80
2023-02-05T12:57:33.184Z,8.20
2023-02-05T12:58:33.152Z,8.90
2023-02-05T12:59:33.133Z,9.00
2023-02-05T13:00:33.533Z,9.00